Tiempo atmosférico en la estación meteorológica de Campos, Can Sion, Illes Balears (40 m.)



Fecha
DESCASC
Temp. máxima en grados centígrados (hora)
DESCASC
Temp. mínima en grados centígrados (hora)
DESCASC
Temp. media en grados centígrados
DESCASC
Racha de viento máxima en m/sg (hora)
DESCASC
Velocidad máxima media en intervalos de 10 minutos(hora)
DESCASC
Precipitaciones diarias en mm
DESCASC
Precipitaciones de 00:00 a 06:00 en mm
DESCASC
Precipitaciones de 06:00 a 12:00 en mm
DESCASC
Precipitaciones de 12:00 a 18:00 en mm
DESCASC
Precipitaciones de 18:00 a 24:00 en mm
DESCASC
22-01-2020 16.9 (12:30) 7.6 (00:10) 12.2 8.89 (11:40) 5.56 (11:20) 0.8 0.2 0 0 0.6
21-01-2020 15.2 (11:30) 7.7 (23:59) 11.4 19.72 (12:30) 10.28 (11:50) 2 0.2 0.2 1.6 0
20-01-2020 13.9 (11:50) 9.4 (04:20) 11.6 13.06 (02:50) 5.56 (03:00) 39 25.6 4.8 8.6 0
19-01-2020 12.1 (10:20) 6.5 (00:00) 9.3 14.17 (20:40) 6.11 (20:40) 73.2 0 9.6 38.2 25.4
18-01-2020 16.9 (14:50) 0.9 (00:00) 8.9 4.44 (00:10) 2.5 (15:40) 0.2 0 0 0.2 0
17-01-2020 17.4 (13:20) 4 (00:00) 10.7 12.5 (14:00) 7.22 (13:50) 0 0 0 0 0
16-01-2020 17.1 (15:10) 1.2 (00:00) 9.2 5 (15:10) 3.33 (14:50) 0 0 0 0 0
15-01-2020 16.4 (11:10) 4.4 (00:00) 10.4 7.78 (15:10) 4.17 (15:10) 0 0 0 0 0
14-01-2020 15.9 (12:30) 5.5 (00:00) 10.7 7.78 (14:00) 4.17 (12:50) 0 0 0 0 0
13-01-2020 15 (14:30) -1.2 (-00:0) 6.9 8.06 (13:10) 4.72 (14:00) 0 0 0 0 0
12-01-2020 15.8 (14:10) 0.6 (00:00) 8.2 6.39 (11:10) 3.33 (11:50) 0 0 0 0 0
11-01-2020 14.1 (12:10) 2.9 (00:00) 8.5 11.11 (12:50) 5.83 (13:20) 0 0 0 0 0
10-01-2020 13 (12:10) 3.7 (00:00) 8.4 8.33 (22:20) 3.61 (22:20) 7.6 0 0 7.2 0.4
09-01-2020 17 (15:20) 2.2 (00:00) 9.6 5.28 (14:40) 2.5 (13:30) 0 0 0 0 0
08-01-2020 16.7 (14:10) 1.5 (00:00) 9.1 7.22 (12:30) 3.33 (11:40) 0 0 0 0 0
07-01-2020 18.1 (14:00) 3.7 (00:00) 10.9 4.72 (15:10) 2.5 (15:50) 0 0 0 0 0
06-01-2020 14.3 (13:30) 0.5 (00:00) 7.4 3.61 (14:20) 1.94 (14:00) 0 0 0 0 0
05-01-2020 18.5 (15:50) -0.4 (00:00) 9 3.33 (14:50) 1.67 (14:20) 0 0 0 0 0
04-01-2020 17.8 (14:30) 2.9 (00:00) 10.3 5.28 (16:30) 3.06 (16:40) 0 0 0 0 0
03-01-2020 15.1 (13:20) 7.4 (00:00) 11.3 5.28 (14:20) 2.78 (14:40) 0 0 0 0 0
02-01-2020 15.6 (14:00) 5.3 (00:00) 10.5 3.33 (14:00) 1.94 (14:20) 0 0 0 0 0
01-01-2020 14.7 (14:00) 2 (00:00) 8.3 2.78 (08:10) 1.67 (08:00) 0 0 0 0 0
31-12-2019 16.9 (14:50) 1.6 (00:00) 9.2 3.89 (14:40) 2.22 (14:00) 0 0 0 0 0
30-12-2019 17 (14:10) 2.8 (00:00) 9.9 -- (--) -- (--) 0 0 0 0 0
29-12-2019 14.8 (14:30) 2.6 (00:00) 8.7 2.5 (09:50) 1.67 (06:50) 0 0 0 0 0
28-12-2019 17.3 (13:20) 2.5 (00:00) 9.9 5 (15:20) 2.22 (15:20) 0 0 0 0 0
27-12-2019 17.8 (14:00) 3.7 (00:00) 10.7 6.39 (13:50) 3.61 (13:50) 0 0 0 0 0
26-12-2019 21 (14:30) 5.4 (00:00) 13.2 5.28 (14:50) 2.78 (15:20) 0.2 0.2 0 0 0
25-12-2019 19.2 (15:30) 3.7 (00:00) 11.5 5 (13:30) 3.06 (13:30) 0.2 0 0 0 0.2

Gráficas

Temp. máximas Temp. mínimas Temp. medias Precipitaciones Rachas de viento máximas Velocidades máximas media en intervalos de 10 minutos

Datos horarios

Fecha y hora oficial Temperatura (ºC) Velocidad del viento (km/h) Dirección del viento Racha (km/h) Dirección de racha Precipitación (mm) Presión (hPa) Tendencia (hPa) Humedad (%)
2020-01-23 23:00:00 -- -- -- -- -- -- -- -- --
2020-01-23 22:00:00 6 2 Este 5 Este 0 -- -- 96
2020-01-23 21:00:00 7 3 Este 5 Este 0 -- -- 95
2020-01-23 20:00:00 8 4 Este 4 Este 0 -- -- 93
2020-01-23 19:00:00 9.5 2 Este 3 Este 0 -- -- 88
2020-01-23 18:00:00 13.1 2 Este 6 Oeste 0 -- -- 82
2020-01-23 17:00:00 16.1 4 Oeste 10 Oeste 0 -- -- 74
2020-01-23 16:00:00 17.4 8 Oeste 12 Oeste 0 -- -- 63
2020-01-23 15:00:00 17.7 8 Oeste 15 Oeste 0 -- -- 66
2020-01-23 14:00:00 17.8 8 Oeste 15 Oeste 0 -- -- 67
2020-01-23 13:00:00 17.6 2 Sudoeste 7 Noroeste 0 -- -- 62
2020-01-23 12:00:00 16.8 3 Oeste 6 Noroeste 0 -- -- 67
2020-01-23 11:00:00 15.3 0 Calma 5 Nordeste 0 -- -- 84
2020-01-23 10:00:00 12.5 0 Calma 5 Este 0 -- -- 100
2020-01-23 09:00:00 8.8 3 Este 6 Noroeste 0 -- -- 100
2020-01-23 08:00:00 8.1 0 Calma 4 Este 0 -- -- 99
2020-01-23 07:00:00 8.2 0 Calma 8 Sur 0 -- -- 98
2020-01-23 06:00:00 9.1 6 Sur 12 Sur 0 -- -- 99
2020-01-23 05:00:00 9.2 4 Sudeste 10 Sur 0 -- -- 97
2020-01-23 04:00:00 9.5 6 Sur 10 Sur 0 -- -- 98
2020-01-23 03:00:00 10.2 3 Este 6 Sur 0 -- -- 96
2020-01-23 02:00:00 12.1 3 Sur 11 Sur 0.2 -- -- 96
2020-01-23 01:00:00 13 4 Sur 14 Sur 0.8 -- -- 97
2020-01-23 00:00:00 13.3 0 Calma 8 Sudoeste 0 -- -- 97
2020-01-22 23:00:00 13.8 2 Este 8 Noroeste 0.6 -- -- 94
2020-01-22 22:00:00 14.6 6 Este 20 Este 0 -- -- 90
2020-01-22 21:00:00 14.4 14 Este 23 Este 0 -- -- 91
2020-01-22 20:00:00 14.3 11 Este 23 Este 0 -- -- 93
2020-01-22 19:00:00 14.2 10 Este 21 Sudeste 0 -- -- 93
2020-01-22 18:00:00 14.3 10 Este 22 Este 0 -- -- 92
2020-01-22 17:00:00 15.3 12 Este 24 Este 0 -- -- 89
2020-01-22 16:00:00 16.4 13 Este 27 Sudeste 0 -- -- 85
2020-01-22 15:00:00 16.5 14 Este 26 Sudeste 0 -- -- 84
2020-01-22 14:00:00 16.6 14 Este 30 Sudeste 0 -- -- 85
2020-01-22 13:00:00 16.6 16 Este 31 Sudeste 0 -- -- 85
2020-01-22 12:00:00 16.1 17 Este 32 Este 0 -- -- 88
2020-01-22 11:00:00 15.2 18 Este 30 Este 0 -- -- 100
2020-01-22 10:00:00 12.8 5 Nordeste 10 Nordeste 0 -- -- 100
2020-01-22 09:00:00 11.2 0 Calma 9 Nordeste 0 -- -- 100
2020-01-22 08:00:00 10.6 3 Este 7 Nordeste 0 -- -- 100
2020-01-22 07:00:00 10.4 4 Norte 8 Nordeste 0 -- -- 100
2020-01-22 06:00:00 9.8 2 Nordeste 8 Este 0.2 -- -- 100
2020-01-22 05:00:00 10.3 6 Este 9 Este 0 -- -- 100
2020-01-22 04:00:00 10.2 2 Este 8 Nordeste 0 -- -- 100
2020-01-22 03:00:00 10 6 Este 8 Este 0 -- -- 100
2020-01-22 02:00:00 9 3 Este 7 Nordeste 0 -- -- 100
2020-01-22 01:00:00 8.8 3 Este 5 Este 0 -- -- 99
2020-01-22 00:00:00 7.7 0 Calma 4 Nordeste 0 -- -- 97
2020-01-21 23:00:00 8.1 2 Este 4 Este 0 -- -- 96
2020-01-21 22:00:00 9.4 0 Calma 8 Este 0 -- -- 94
2020-01-21 21:00:00 11.6 4 Este 10 Este 0 -- -- 93
2020-01-21 20:00:00 12.9 7 Este 19 Este 0 -- -- 90
2020-01-21 19:00:00 13.4 10 Este 24 Sudeste 0 -- -- 88
2020-01-21 18:00:00 14.1 11 Este 31 Este 0 -- -- 90
2020-01-21 17:00:00 14.6 17 Este 41 Sudeste 0.2 -- -- 88
2020-01-21 16:00:00 14.1 20 Este 41 Este 1.2 -- -- 92
2020-01-21 15:00:00 14.6 24 Este 59 Este 0.2 -- -- 86
2020-01-21 14:00:00 15.1 29 Este 63 Este 0 -- -- 82
2020-01-21 13:00:00 14.8 35 Este 71 Este 0 -- -- 85
2020-01-21 12:00:00 15.2 32 Este 62 Este 0 -- -- 83
2020-01-21 11:00:00 15 26 Este 56 Este 0 -- -- 85
2020-01-21 10:00:00 15 28 Este 45 Este 0 -- -- 85
2020-01-21 09:00:00 14.8 30 Este 51 Este 0 -- -- 87
2020-01-21 08:00:00 14.5 25 Este 42 Este 0 -- -- 91
2020-01-21 07:00:00 14.1 20 Este 40 Este 0.2 -- -- 95
2020-01-21 06:00:00 13.9 18 Este 42 Este 0.2 -- -- 98
2020-01-21 05:00:00 14.2 25 Este 49 Este 0 -- -- 100
2020-01-21 04:00:00 14.3 28 Este 50 Este 0 -- -- 100
2020-01-21 03:00:00 14.2 27 Este 57 Este 0 -- -- 100
2020-01-21 02:00:00 14.2 25 Este 46 Este 0 -- -- 100
2020-01-21 01:00:00 14.2 25 Este 51 Este 0 -- -- 100
2020-01-21 00:00:00 13.6 18 Este 36 Este 0 -- -- 100
2020-01-20 23:00:00 13.4 19 Este 34 Este 0 -- -- 100
2020-01-20 22:00:00 13 15 Este 33 Este 0 -- -- 100
2020-01-20 21:00:00 12.6 15 Este 27 Este 0 -- -- 100
2020-01-20 20:00:00 11.6 6 Nordeste 17 Nordeste 0 -- -- 100
2020-01-20 19:00:00 11.1 5 Nordeste 10 Nordeste 0 -- -- 100
2020-01-20 18:00:00 11.9 7 Este 11 Sudeste 0.2 -- -- 100
2020-01-20 17:00:00 12.8 7 Sudeste 15 Este 0 -- -- 100
2020-01-20 16:00:00 13.3 7 Sudeste 23 Sudeste 2.6 -- -- 100
2020-01-20 15:00:00 13 9 Este 26 Este 3.8 -- -- 100
2020-01-20 14:00:00 13 6 Nordeste 32 Este 1.4 -- -- 100
2020-01-20 13:00:00 13.1 13 Este 33 Este 0.6 -- -- 100
2020-01-20 12:00:00 13.9 7 Nordeste 18 Norte 0 -- -- 100
2020-01-20 11:00:00 11.7 3 Nordeste 12 Norte 0 -- -- 100
2020-01-20 10:00:00 10 5 Nordeste 19 Norte 0 -- -- 100
2020-01-20 09:00:00 10.5 6 Nordeste 19 Nordeste 0.8 -- -- 100
2020-01-20 08:00:00 9.9 2 Norte 14 Norte 0.4 -- -- 100
2020-01-20 07:00:00 10.4 8 Nordeste 20 Nordeste 3.6 -- -- 100
2020-01-20 06:00:00 10.7 2 Nordeste 28 Este 0 -- -- 100
2020-01-20 05:00:00 10.5 14 Este 31 Nordeste 0.2 -- -- 100
2020-01-20 04:00:00 9.7 16 Norte 37 Nordeste 1.2 -- -- 100
2020-01-20 03:00:00 10.1 20 Nordeste 47 Nordeste 5 -- -- 100
2020-01-20 02:00:00 10.3 13 Nordeste 40 Este 8.8 -- -- 100
2020-01-20 01:00:00 9.7 15 Nordeste 31 Nordeste 10.4 -- -- 100
2020-01-20 00:00:00 10.2 16 Nordeste 32 Nordeste 5.6 -- -- 100
2020-01-19 23:00:00 10.3 14 Nordeste 43 Este 3.4 -- -- 100
2020-01-19 22:00:00 9.9 14 Nordeste 36 Nordeste 1.8 -- -- 100
2020-01-19 21:00:00 9.3 19 Nordeste 51 Nordeste 3.6 -- -- 100
2020-01-19 20:00:00 9.7 13 Nordeste 36 Nordeste 3.6 -- -- 100
2020-01-19 19:00:00 9.8 8 Nordeste 31 Nordeste 7.4 -- -- 100
2020-01-19 18:00:00 10.3 11 Nordeste 34 Nordeste 11 -- -- 100
2020-01-19 17:00:00 10.6 18 Nordeste 35 Nordeste 7.2 -- -- 100
2020-01-19 16:00:00 11 10 Nordeste 30 Nordeste 3.4 -- -- 100
2020-01-19 15:00:00 11.4 8 Nordeste 20 Norte 6 -- -- 100
2020-01-19 14:00:00 11.4 8 Nordeste 19 Nordeste 5.2 -- -- 100
2020-01-19 13:00:00 11.3 11 Nordeste 22 Este 5.4 -- -- 100
2020-01-19 12:00:00 11.6 10 Nordeste 22 Norte 3 -- -- 100
2020-01-19 11:00:00 12 5 Nordeste 17 Nordeste 6.6 -- -- 100
2020-01-19 10:00:00 11.9 6 Nordeste 13 Este 0 -- -- 100
2020-01-19 09:00:00 11.5 4 Nordeste 12 Este 0 -- -- 100
2020-01-19 08:00:00 9.6 4 Este 6 Este 0 -- -- 100
2020-01-19 07:00:00 9.4 4 Este 8 Este 0 -- -- 100
2020-01-19 06:00:00 9.6 3 Este 6 Nordeste 0 -- -- 99
2020-01-19 05:00:00 10.1 3 Norte 4 Nordeste 0 -- -- 99
2020-01-19 04:00:00 9.7 4 Este 6 Este 0 -- -- 100
2020-01-19 03:00:00 9.1 4 Este 5 Este 0 -- -- 99
2020-01-19 02:00:00 9 3 Este 6 Este 0 -- -- 99
2020-01-19 01:00:00 7.9 4 Este 6 Este 0 -- -- 98
2020-01-19 00:00:00 6.5 0 Calma 4 Este 0 -- -- 98
2020-01-18 23:00:00 6.5 3 Este 6 Este 0 -- -- 97
2020-01-18 22:00:00 5.9 4 Este 5 Este 0 -- -- 96
2020-01-18 21:00:00 6.3 3 Sudeste 5 Este 0 -- -- 95
2020-01-18 20:00:00 7.1 4 Este 5 Este 0 -- -- 92
2020-01-18 19:00:00 8.4 3 Este 5 Este 0 -- -- 89
2020-01-18 18:00:00 12.2 2 Sur 8 Sudoeste 0 -- -- 80
2020-01-18 17:00:00 15.1 5 Sudoeste 14 Sudoeste 0 -- -- 73
2020-01-18 16:00:00 16.6 7 Oeste 15 Oeste 0 -- -- 69
2020-01-18 15:00:00 16.8 9 Sudoeste 16 Oeste 0 -- -- 73
2020-01-18 14:00:00 15.2 6 Oeste 12 Sur 0 -- -- 84
2020-01-18 13:00:00 13.7 2 Sudeste 6 Este 0.2 -- -- 98
2020-01-18 12:00:00 11.9 0 Calma 3 Nordeste 0 -- -- 100
2020-01-18 11:00:00 10 0 Calma 5 Nordeste 0 -- -- 100
2020-01-18 10:00:00 7.4 0 Calma 4 Nordeste 0 -- -- 100
2020-01-18 09:00:00 3.7 4 Este 6 Este 0 -- -- 100
2020-01-18 08:00:00 0.9 0 Calma 3 Norte 0 -- -- 98
2020-01-18 07:00:00 1.4 4 Nordeste 6 Nordeste 0 -- -- 98
2020-01-18 06:00:00 1.3 4 Este 4 Este 0 -- -- 98
2020-01-18 05:00:00 1.9 3 Este 5 Este 0 -- -- 97
2020-01-18 04:00:00 2.5 3 Este 5 Este 0 -- -- 98
2020-01-18 03:00:00 2.2 0 Calma 3 Noroeste 0 -- -- 97
2020-01-18 02:00:00 3.4 3 Este 5 Este 0 -- -- 96
2020-01-18 01:00:00 5.6 0 Calma 16 Nordeste 0 -- -- 96
2020-01-18 00:00:00 5.1 6 Este 15 Nordeste 0 -- -- 96
2020-01-17 23:00:00 4.9 2 Sur 6 Este 0 -- -- 95
2020-01-17 22:00:00 5.8 0 Calma 6 Sudoeste 0 -- -- 95
2020-01-17 21:00:00 6.6 0 Calma 5 Sudoeste 0 -- -- 94
2020-01-17 20:00:00 7.4 0 Calma 6 Oeste 0 -- -- 91
2020-01-17 19:00:00 9.4 3 Sur 5 Sudoeste 0 -- -- 87
2020-01-17 18:00:00 12.9 2 Oeste 15 Oeste 0 -- -- 77
2020-01-17 17:00:00 16.2 9 Sudoeste 24 Sudoeste 0 -- -- 69
2020-01-17 16:00:00 16.9 13 Oeste 26 Oeste 0 -- -- 65
2020-01-17 15:00:00 17 19 Oeste 41 Oeste 0 -- -- 61
2020-01-17 14:00:00 16.9 25 Oeste 45 Sudoeste 0 -- -- 56
2020-01-17 13:00:00 16.9 21 Sudoeste 37 Sudoeste 0 -- -- 75
2020-01-17 12:00:00 16.5 19 Sudoeste 38 Oeste 0 -- -- 82
2020-01-17 11:00:00 15.1 14 Sudoeste 26 Sudoeste 0 -- -- 92
2020-01-17 10:00:00 13.5 11 Sudoeste 24 Sudoeste 0 -- -- 100
2020-01-17 09:00:00 11.5 7 Sudoeste 13 Sudoeste 0 -- -- 100
2020-01-17 08:00:00 6.8 2 Sudoeste 6 Sudoeste 0 -- -- 99
2020-01-17 07:00:00 5.4 0 Calma 4 Sudoeste 0 -- -- 99
2020-01-17 06:00:00 4.1 2 Sur 4 Este 0 -- -- 99
2020-01-17 05:00:00 4.4 0 Calma 5 Sur 0 -- -- 98
2020-01-17 04:00:00 4.6 -- -- -- -- 0 -- -- 98
2020-01-17 03:00:00 4.3 3 Este 5 Este 0 -- -- 98
2020-01-17 02:00:00 4.6 3 Este 5 Este 0 -- -- 97
2020-01-17 01:00:00 5.4 4 Sudeste 5 Este 0 -- -- 98
2020-01-17 00:00:00 5.1 4 Este 5 Este 0 -- -- 97
2020-01-16 23:00:00 4.6 0 Calma 4 Este 0 -- -- 96
2020-01-16 22:00:00 4.8 3 Este 4 Este 0 -- -- 95
2020-01-16 21:00:00 5.7 2 Nordeste 5 Noroeste 0 -- -- 94
2020-01-16 20:00:00 7.1 4 Este 5 Sudeste 0 -- -- 92
2020-01-16 19:00:00 8.7 4 Sur 5 Sur 0 -- -- 87
2020-01-16 18:00:00 12.6 2 Sur 9 Sudoeste 0 -- -- 81
2020-01-16 17:00:00 15.8 6 Sudoeste 16 Sudoeste 0 -- -- 74
2020-01-16 16:00:00 16.6 10 Sudoeste 18 Sudoeste 0 -- -- 71
2020-01-16 15:00:00 17 10 Sudoeste 17 Sudoeste 0 -- -- 72
2020-01-16 14:00:00 16.2 9 Sudoeste 18 Oeste 0 -- -- 74
2020-01-16 13:00:00 16.5 8 Oeste 15 Sudoeste 0 -- -- 79
2020-01-16 12:00:00 14.2 3 Oeste 6 Sudoeste 0 -- -- 93
2020-01-16 11:00:00 11.3 0 Calma 4 Norte 0 -- -- 100
2020-01-16 10:00:00 8.7 0 Calma 6 Este 0 -- -- 100
2020-01-16 09:00:00 3.3 5 Este 6 Este 0 -- -- 100
2020-01-16 08:00:00 2.5 4 Este 8 Este 0 -- -- 100
2020-01-16 07:00:00 2.1 4 Este 6 Este 0 -- -- 99
2020-01-16 06:00:00 1.4 3 Este 4 Este 0 -- -- 99
2020-01-16 05:00:00 1.6 2 Nordeste 6 Nordeste 0 -- -- 98
2020-01-16 04:00:00 2.2 3 Este 6 Este 0 -- -- 98
2020-01-16 03:00:00 2.3 3 Este 5 Nordeste 0 -- -- 98
2020-01-16 02:00:00 3.1 2 Nordeste 8 Norte 0 -- -- 97
2020-01-16 01:00:00 3.8 2 Este 6 Este 0 -- -- 96
2020-01-16 00:00:00 4.4 2 Nordeste 6 Este 0 -- -- 96
2020-01-15 23:00:00 4.6 4 Este 6 Este 0 -- -- 96
2020-01-15 22:00:00 5.2 4 Este 5 Este 0 -- -- 95
2020-01-15 21:00:00 5 4 Este 4 Este 0 -- -- 93
2020-01-15 20:00:00 6.2 0 Calma 4 Este 0 -- -- 91
2020-01-15 19:00:00 8 2 Sudeste 4 Sur 0 -- -- 87
2020-01-15 18:00:00 11.1 3 Sur 9 Sudoeste 0 -- -- 81
2020-01-15 17:00:00 13.7 5 Sudoeste 17 Oeste 0 -- -- 73
2020-01-15 16:00:00 14.8 9 Oeste 28 Sudoeste 0 -- -- 69
2020-01-15 15:00:00 16.1 14 Sudoeste 27 Sudoeste 0 -- -- 65
2020-01-15 14:00:00 15.6 10 Sudoeste 22 Oeste 0 -- -- 65
2020-01-15 13:00:00 15.4 14 Sudoeste 23 Sudoeste 0 -- -- 71
2020-01-15 12:00:00 15.4 13 Sudoeste 26 Sudoeste 0 -- -- 71
2020-01-15 11:00:00 16.3 12 Sudoeste 23 Sudoeste 0 -- -- 74
2020-01-15 10:00:00 13.2 0 Calma 8 Sudoeste 0 -- -- 89
2020-01-15 09:00:00 12.2 3 Sur 12 Sur 0 -- -- 92
2020-01-15 08:00:00 11.4 6 Sur 13 Sudeste 0 -- -- 95
2020-01-15 07:00:00 9.6 5 Sur 8 Sudeste 0 -- -- 93
2020-01-15 06:00:00 10.1 5 Sur 10 Sur 0 -- -- 89
2020-01-15 05:00:00 10.3 4 Sudeste 9 Sudeste 0 -- -- 89
2020-01-15 04:00:00 11 5 Sur 11 Sudeste 0 -- -- 86
2020-01-15 03:00:00 10.9 4 Sudeste 10 Sur 0 -- -- 87
2020-01-15 02:00:00 10.9 5 Sur 13 Sur 0 -- -- 85
2020-01-15 01:00:00 9.8 5 Sur 10 Sur 0 -- -- 90
2020-01-15 00:00:00 8.9 4 Sudeste 8 Sudeste 0 -- -- 91
2020-01-14 23:00:00 8.3 4 Sur 7 Sudeste 0 -- -- 91
2020-01-14 22:00:00 9.6 4 Sudeste 9 Sudeste 0 -- -- 86
2020-01-14 21:00:00 8.8 5 Sudeste 8 Sudeste 0 -- -- 87
2020-01-14 20:00:00 8.6 5 Sudeste 9 Sudeste 0 -- -- 86
2020-01-14 19:00:00 9.6 5 Sur 8 Sur 0 -- -- 82
2020-01-14 18:00:00 12.3 3 Sur 11 Sudoeste 0 -- -- 75
2020-01-14 17:00:00 14.1 8 Sudoeste 19 Sur 0 -- -- 67
2020-01-14 16:00:00 14.6 8 Sur 22 Sudoeste 0 -- -- 67
2020-01-14 15:00:00 14.9 12 Sudoeste 25 Sudoeste 0 -- -- 64
2020-01-14 14:00:00 15.1 15 Sudoeste 28 Sudoeste 0 -- -- 66
2020-01-14 13:00:00 14.4 15 Sudoeste 28 Sudoeste 0 -- -- 69
2020-01-14 12:00:00 14.8 15 Sudoeste 27 Sur 0 -- -- 67
2020-01-14 11:00:00 13.7 9 Sur 24 Sudoeste 0 -- -- 73
2020-01-14 10:00:00 13.6 10 Sur 19 Sur 0 -- -- 74
2020-01-14 09:00:00 11.3 6 Sur 14 Sur 0 -- -- 79
2020-01-14 08:00:00 10.8 6 Sur 13 Sudoeste 0 -- -- 81
2020-01-14 07:00:00 10.3 7 Sudoeste 13 Sudoeste 0 -- -- 82
2020-01-14 06:00:00 9.7 7 Sur 12 Sur 0 -- -- 85
2020-01-14 05:00:00 9.7 6 Sur 14 Sudoeste 0 -- -- 84
2020-01-14 04:00:00 10.2 6 Sur 14 Sudoeste 0 -- -- 81
2020-01-14 03:00:00 10.9 7 Sudoeste 18 Sudoeste 0 -- -- 80
2020-01-14 02:00:00 10.6 6 Sudoeste 15 Sudoeste 0 -- -- 87
2020-01-14 01:00:00 9.5 7 Sur 13 Sur 0 -- -- 97
2020-01-14 00:00:00 5.5 0 Calma 7 Sudoeste 0 -- -- 96
2020-01-13 23:00:00 5.1 2 Sudeste 8 Sur 0 -- -- 95
2020-01-13 22:00:00 6 4 Sur 8 Sur 0 -- -- 96
2020-01-13 21:00:00 5.4 2 Sudeste 3 Este 0 -- -- 93
2020-01-13 20:00:00 5.9 2 Sudeste 4 Sur 0 -- -- 90
2020-01-13 19:00:00 7.9 2 Sur 8 Sur 0 -- -- 86
2020-01-13 18:00:00 10.7 3 Sur 14 Sudoeste 0 -- -- 78
2020-01-13 17:00:00 13.3 5 Sudoeste 22 Sudoeste 0 -- -- 71
2020-01-13 16:00:00 14.1 12 Oeste 24 Oeste 0 -- -- 69
2020-01-13 15:00:00 14.8 15 Sudoeste 27 Sudoeste 0 -- -- 67
2020-01-13 14:00:00 14.6 17 Sudoeste 29 Sudoeste 0 -- -- 67
2020-01-13 13:00:00 14.6 15 Sudoeste 27 Oeste 0 -- -- 70
2020-01-13 12:00:00 14.2 10 Sudoeste 18 Sudoeste 0 -- -- 77
2020-01-13 11:00:00 12 3 Sudoeste 6 Sudoeste 0 -- -- 98
2020-01-13 10:00:00 8.1 3 Este 4 Este 0 -- -- 100
2020-01-13 09:00:00 1.5 3 Este 6 Este 0 -- -- 100
2020-01-13 08:00:00 -0.1 4 Este 6 Este 0 -- -- 98
2020-01-13 07:00:00 -0.2 4 Este 6 Este 0 -- -- 98
2020-01-13 06:00:00 -1 4 Este 5 Este 0 -- -- 99
2020-01-13 05:00:00 -0.9 3 Este 6 Este 0 -- -- 97
2020-01-13 04:00:00 -0.8 4 Este 6 Este 0 -- -- 97
2020-01-13 03:00:00 -0.9 2 Nordeste -- -- 0 -- -- 97
2020-01-13 02:00:00 -0.3 2 Este 4 Este 0 -- -- 96
2020-01-13 01:00:00 0.4 3 Este 4 Este 0 -- -- 97
2020-01-13 00:00:00 1.5 3 Este 5 Este 0 -- -- 95
2020-01-12 23:00:00 2.2 3 Este 6 Este 0 -- -- 95
2020-01-12 22:00:00 2.4 3 Este 8 Este 0 -- -- 94
2020-01-12 21:00:00 2.6 3 Este 5 Este 0 -- -- 92
2020-01-12 20:00:00 3.9 2 Este 4 Este 0 -- -- 89
2020-01-12 19:00:00 6.6 4 Este 8 Nordeste 0 -- -- 85
2020-01-12 18:00:00 10 3 Norte 13 Nordeste 0 -- -- 76
2020-01-12 17:00:00 13.5 6 Nordeste 19 Nordeste 0 -- -- 69
2020-01-12 16:00:00 15.4 6 Nordeste 17 Nordeste 0 -- -- 62
2020-01-12 15:00:00 15.5 8 Nordeste 19 Nordeste 0 -- -- 63
2020-01-12 14:00:00 15.6 7 Norte 20 Norte 0 -- -- 61
2020-01-12 13:00:00 14.8 10 Norte 23 Norte 0 -- -- 63
2020-01-12 12:00:00 14.1 9 Norte 23 Norte 0 -- -- 68
2020-01-12 11:00:00 12.5 9 Norte 17 Norte 0 -- -- 77
2020-01-12 10:00:00 8.8 4 Norte 8 Norte 0 -- -- 99
2020-01-12 09:00:00 3.1 3 Este 6 Este 0 -- -- 100
2020-01-12 08:00:00 0.6 2 Este 4 Este 0 -- -- 98
2020-01-12 07:00:00 1.4 3 Este 4 Este 0 -- -- 98
2020-01-12 06:00:00 1.7 2 Este 5 Nordeste 0 -- -- 97
2020-01-12 05:00:00 3 0 Calma 9 Este 0 -- -- 97
2020-01-12 04:00:00 3.3 3 Nordeste 7 Nordeste 0 -- -- 97
2020-01-12 03:00:00 2.8 2 Nordeste 5 Norte 0 -- -- 97
2020-01-12 02:00:00 4.2 2 Noroeste 6 Norte 0 -- -- 96
2020-01-12 01:00:00 4.4 4 Nordeste 6 Este 0 -- -- 97
2020-01-12 00:00:00 2.9 0 Calma 2 Norte 0 -- -- 95
2020-01-11 23:00:00 4.5 0 Calma 4 Oeste 0 -- -- 94
2020-01-11 22:00:00 6 0 Calma 3 Sudoeste 0 -- -- 95
2020-01-11 21:00:00 5 2 Sudeste 5 Este 0 -- -- 93
2020-01-11 20:00:00 5.5 2 Nordeste 7 Noroeste 0 -- -- 86
2020-01-11 19:00:00 7.8 5 Noroeste 10 Norte 0 -- -- 81
2020-01-11 18:00:00 9.8 5 Norte 28 Norte 0 -- -- 74
2020-01-11 17:00:00 12.2 11 Norte 27 Norte 0 -- -- 67
2020-01-11 16:00:00 12.1 14 Norte 33 Nordeste 0 -- -- 68
2020-01-11 15:00:00 13.6 13 Norte 40 Nordeste 0 -- -- 65
2020-01-11 14:00:00 13.5 17 Nordeste 38 Nordeste 0 -- -- 64
2020-01-11 13:00:00 13.5 17 Norte 40 Norte 0 -- -- 64
2020-01-11 12:00:00 13.8 14 Nordeste 35 Nordeste 0 -- -- 68
2020-01-11 11:00:00 13.2 13 Nordeste 23 Nordeste 0 -- -- 69
2020-01-11 10:00:00 11.7 9 Nordeste 23 Nordeste 0 -- -- 80
2020-01-11 09:00:00 9.9 6 Nordeste 19 Norte 0 -- -- 93
2020-01-11 08:00:00 8.1 2 Nordeste 6 Nordeste 0 -- -- 91
2020-01-11 07:00:00 9.1 3 Norte 17 Nordeste 0 -- -- 88
2020-01-11 06:00:00 9.8 7 Nordeste 19 Nordeste 0 -- -- 85
2020-01-11 05:00:00 10.5 8 Nordeste 24 Nordeste 0 -- -- 87
2020-01-11 04:00:00 10.2 5 Nordeste 15 Nordeste 0 -- -- 88
2020-01-11 03:00:00 9.8 5 Nordeste 22 Nordeste 0 -- -- 87
2020-01-11 02:00:00 10.3 8 Nordeste 22 Nordeste 0 -- -- 86
2020-01-11 01:00:00 10.2 8 Nordeste 21 Nordeste 0 -- -- 87
2020-01-11 00:00:00 11 10 Nordeste 27 Nordeste 0 -- -- 87
2020-01-10 23:00:00 11 5 Nordeste 30 Nordeste 0 -- -- 90
2020-01-10 22:00:00 10.5 8 Nordeste 22 Nordeste 0 -- -- 91
2020-01-10 21:00:00 10.4 6 Nordeste 20 Nordeste 0.2 -- -- 90
2020-01-10 20:00:00 10.7 9 Nordeste 21 Nordeste 0 -- -- 94
2020-01-10 19:00:00 10.9 8 Nordeste 21 Norte 0.2 -- -- 95
2020-01-10 18:00:00 11 9 Nordeste 27 Nordeste 0.8 -- -- 94
2020-01-10 17:00:00 11.7 8 Nordeste 24 Nordeste 0 -- -- 92
2020-01-10 16:00:00 11.7 8 Nordeste 18 Nordeste 0 -- -- 96
2020-01-10 15:00:00 11.7 0 Calma 8 Norte 1.8 -- -- 96
2020-01-10 14:00:00 11.8 6 Este 16 Este 3 -- -- 95
2020-01-10 13:00:00 12.4 0 Calma 13 Norte 1.6 -- -- 95
2020-01-10 12:00:00 12.9 3 Norte 11 Noroeste 0 -- -- 98
2020-01-10 11:00:00 10.7 3 Este 13 Norte 0 -- -- 100
2020-01-10 10:00:00 9.2 5 Nordeste 13 Nordeste 0 -- -- 100
2020-01-10 09:00:00 7.9 5 Este 9 Este 0 -- -- 100
2020-01-10 08:00:00 6.9 2 Norte 11 Este 0 -- -- 99
2020-01-10 07:00:00 5.8 7 Este 11 Este 0 -- -- 100
2020-01-10 06:00:00 6.5 0 Calma 9 Este 0 -- -- 99
2020-01-10 05:00:00 6.8 3 Norte 8 Este 0 -- -- 99
2020-01-10 04:00:00 5 4 Este 9 Este 0 -- -- 99
2020-01-10 03:00:00 4.6 6 Este 10 Este 0 -- -- 99
2020-01-10 02:00:00 4.8 2 Norte 9 Oeste 0 -- -- 96
2020-01-10 01:00:00 5.6 2 Nordeste 9 Este 0 -- -- 97
2020-01-10 00:00:00 5.9 4 Este 8 Este 0 -- -- 97
2020-01-09 23:00:00 5.2 4 Este 10 Oeste 0 -- -- 96
2020-01-09 22:00:00 5.4 4 Este 8 Este 0 -- -- 95
2020-01-09 21:00:00 6.4 3 Norte 6 Este 0 -- -- 94
2020-01-09 20:00:00 7.5 0 Calma 6 Este 0 -- -- 93
2020-01-09 19:00:00 8.8 3 Este 4 Este 0 -- -- 89
2020-01-09 18:00:00 11 2 Sudeste 5 Sudeste 0 -- -- 82
2020-01-09 17:00:00 14.6 3 Sur 12 Sur 0 -- -- 76
2020-01-09 16:00:00 15.7 6 Sudeste 18 Este 0 -- -- 67
2020-01-09 15:00:00 16.9 6 Sudeste 19 Sudeste 0 -- -- 65
2020-01-09 14:00:00 14.7 4 Este 17 Sudeste 0 -- -- 80
2020-01-09 13:00:00 15.5 4 Nordeste 13 Nordeste 0 -- -- 75
2020-01-09 12:00:00 14.7 5 Nordeste 13 Nordeste 0 -- -- 82
2020-01-09 11:00:00 12.8 5 Norte 13 Norte 0 -- -- 98
2020-01-09 10:00:00 8.7 2 Este 7 Nordeste 0 -- -- 99
2020-01-09 09:00:00 3.9 2 Norte 8 Oeste 0 -- -- 100
2020-01-09 08:00:00 2.2 0 Calma 6 Nordeste 0 -- -- 98
2020-01-09 07:00:00 2.5 2 Este 9 Nordeste 0 -- -- 98
2020-01-09 06:00:00 2.8 0 Calma 7 Este 0 -- -- 97
2020-01-09 05:00:00 3.4 3 Nordeste 8 Nordeste 0 -- -- 98
2020-01-09 04:00:00 3.4 0 Calma 7 Nordeste 0 -- -- 97
2020-01-09 03:00:00 5.4 3 Nordeste 8 Nordeste 0 -- -- 97
2020-01-09 02:00:00 6.7 4 Nordeste 13 Nordeste 0 -- -- 97
2020-01-09 01:00:00 5.6 4 Nordeste 12 Nordeste 0 -- -- 96
2020-01-09 00:00:00 6.8 4 Nordeste 10 Este 0 -- -- 97
2020-01-08 23:00:00 5.7 7 Nordeste 11 Nordeste 0 -- -- 97
2020-01-08 22:00:00 4.2 0 Calma 4 Nordeste 0 -- -- 92
2020-01-08 21:00:00 5.7 0 Calma 4 Norte 0 -- -- 89
2020-01-08 20:00:00 8.3 3 Nordeste 9 Norte 0 -- -- 87
2020-01-08 19:00:00 10.9 4 Nordeste 15 Nordeste 0 -- -- 84
2020-01-08 18:00:00 12.3 4 Nordeste 12 Norte 0 -- -- 83
2020-01-08 17:00:00 14.5 6 Nordeste 18 Norte 0 -- -- 73
2020-01-08 16:00:00 15.4 10 Norte 26 Nordeste 0 -- -- 72
2020-01-08 15:00:00 15.9 7 Nordeste 22 Nordeste 0 -- -- 73
2020-01-08 14:00:00 16.4 11 Norte 23 Norte 0 -- -- 70
2020-01-08 13:00:00 16 8 Norte 26 Nordeste 0 -- -- 72
2020-01-08 12:00:00 14.4 10 Norte 25 Nordeste 0 -- -- 80
2020-01-08 11:00:00 13.2 6 Nordeste 12 Norte 0 -- -- 94
2020-01-08 10:00:00 10.3 4 Nordeste 11 Nordeste 0 -- -- 100
2020-01-08 09:00:00 3.3 2 Sudoeste 4 Oeste 0 -- -- 100
2020-01-08 08:00:00 1.7 4 Este 6 Este 0 -- -- 99
2020-01-08 07:00:00 2.2 3 Este 4 Nordeste 0 -- -- 98
2020-01-08 06:00:00 3.4 2 Nordeste 5 Este 0 -- -- 98
2020-01-08 05:00:00 3.9 2 Nordeste 5 Nordeste 0 -- -- 98
2020-01-08 04:00:00 3.7 2 Nordeste 5 Este 0 -- -- 98
2020-01-08 03:00:00 4.4 3 Este 5 Este 0 -- -- 98
2020-01-08 02:00:00 4 4 Este 5 Este 0 -- -- 98
2020-01-08 01:00:00 3.9 4 Este 6 Este 0 -- -- 97
2020-01-08 00:00:00 3.7 3 Sur 5 Este 0 -- -- 96
2020-01-07 23:00:00 4.3 3 Este 5 Este 0 -- -- 96
2020-01-07 22:00:00 4.5 3 Este 4 Este 0 -- -- 95
2020-01-07 21:00:00 5.1 2 Sudeste 4 Este 0 -- -- 93
2020-01-07 20:00:00 6.3 2 Sudeste 3 Sur 0 -- -- 91
2020-01-07 19:00:00 8.4 2 Sur 4 Sudoeste 0 -- -- 87
2020-01-07 18:00:00 12.3 3 Sur 11 Sudoeste 0 -- -- 79
2020-01-07 17:00:00 15.4 6 Sudoeste 15 Sudoeste 0 -- -- 72
2020-01-07 16:00:00 16.5 9 Sudoeste 17 Oeste 0 -- -- 68
2020-01-07 15:00:00 16.6 4 Oeste 12 Oeste 0 -- -- 69
2020-01-07 14:00:00 18.1 4 Noroeste 9 Norte 0 -- -- 62
2020-01-07 13:00:00 16.2 3 Noroeste 12 Norte 0 -- -- 70
2020-01-07 12:00:00 15.2 3 Nordeste 12 Noroeste 0 -- -- 76
2020-01-07 11:00:00 15.5 3 Nordeste 7 Nordeste 0 -- -- 77
2020-01-07 10:00:00 12.9 2 Nordeste 6 Este 0 -- -- 92
2020-01-07 09:00:00 9.3 3 Este 6 Nordeste 0 -- -- 98
2020-01-07 08:00:00 7.7 2 Este 3 Norte 0 -- -- 97
2020-01-07 07:00:00 8.7 2 Este -- -- 0 -- -- 95
2020-01-07 06:00:00 9.4 3 Este 6 Este 0 -- -- 97
2020-01-07 05:00:00 9.5 0 Calma 3 Este 0 -- -- 96
2020-01-07 04:00:00 9.7 0 Calma 4 Este 0 -- -- 96
2020-01-07 03:00:00 9.9 0 Calma 3 Este 0 -- -- 95
2020-01-07 02:00:00 10 0 Calma 4 Este 0 -- -- 95
2020-01-07 01:00:00 10 2 Este 4 Este 0 -- -- 95
2020-01-07 00:00:00 10 0 Calma 4 Este 0 -- -- 94
2020-01-06 23:00:00 10.2 0 Calma 4 Este 0 -- -- 93
2020-01-06 22:00:00 10.3 2 Norte 4 Este 0 -- -- 92
2020-01-06 21:00:00 10.6 0 Calma 4 Este 0 -- -- 92
2020-01-06 20:00:00 10.9 0 Calma 6 Norte 0 -- -- 90
2020-01-06 19:00:00 11.4 2 Este 4 Este 0 -- -- 89
2020-01-06 18:00:00 12.2 0 Calma -- -- 0 -- -- 86
2020-01-06 17:00:00 13.3 0 Calma 3 Sudeste 0 -- -- 79
2020-01-06 16:00:00 14 3 Sudoeste 8 Oeste 0 -- -- 70
2020-01-06 15:00:00 14.1 5 Sudoeste 13 Sudoeste 0 -- -- 71
2020-01-06 14:00:00 14.2 7 Sudoeste 12 Sudoeste 0 -- -- 73
2020-01-06 13:00:00 14 2 Noroeste 6 Noroeste 0 -- -- 74
2020-01-06 12:00:00 13.3 2 Noroeste 6 Noroeste 0 -- -- 82
2020-01-06 11:00:00 11.4 3 Nordeste 5 Norte 0 -- -- 100
2020-01-06 10:00:00 7.3 0 Calma 5 Este 0 -- -- 100